createdAt,value
2017-11-11T00:01:58.314Z,82.61
2017-11-11T00:04:30.268Z,82.87
2017-11-11T00:06:58.101Z,82.66
2017-11-11T00:09:29.655Z,82.86
2017-11-11T00:12:00.780Z,83.21
2017-11-11T00:14:39.478Z,83.34
2017-11-11T00:17:09.454Z,83.59
2017-11-11T00:19:37.893Z,83.53
2017-11-11T00:22:09.124Z,83.42
2017-11-11T00:24:41.212Z,83.52
2017-11-11T00:27:12.470Z,83.98
2017-11-11T00:29:40.959Z,84.87
2017-11-11T00:32:09.839Z,84.39
2017-11-11T00:34:37.615Z,84.75
2017-11-11T00:37:05.353Z,83.71
2017-11-11T00:39:34.669Z,83.34
2017-11-11T00:42:03.323Z,83.08
2017-11-11T00:44:32.160Z,82.96
2017-11-11T00:47:00.861Z,82.82
2017-11-11T00:49:32.817Z,82.63
2017-11-11T00:52:11.893Z,82.48
2017-11-11T00:54:41.353Z,81.52
2017-11-11T00:57:10.889Z,81.51
2017-11-11T00:59:41.047Z,80.43
2017-11-11T01:02:10.051Z,80.28
2017-11-11T01:04:43.440Z,80.51
2017-11-11T01:07:19.467Z,80.29
2017-11-11T01:09:48.292Z,79.99
2017-11-11T01:12:16.054Z,79.75
2017-11-11T01:14:44.066Z,80.20
2017-11-11T01:17:13.847Z,79.13
2017-11-11T01:19:46.242Z,79.08
2017-11-11T01:22:14.131Z,79.16
2017-11-11T01:24:41.993Z,79.01
2017-11-11T01:27:09.934Z,79.21
2017-11-11T01:29:37.711Z,79.30
2017-11-11T01:32:05.596Z,79.55
2017-11-11T01:34:33.746Z,80.39
2017-11-11T01:37:01.740Z,80.29
2017-11-11T01:39:29.463Z,79.44
2017-11-11T01:41:58.418Z,79.20
2017-11-11T01:44:26.119Z,78.66
2017-11-11T01:46:53.890Z,77.98
2017-11-11T01:49:22.173Z,78.43
2017-11-11T01:51:50.715Z,78.49
2017-11-11T01:54:18.403Z,78.40
2017-11-11T01:56:46.099Z,77.92
2017-11-11T01:59:14.616Z,78.36
2017-11-11T02:01:43.036Z,78.26
2017-11-11T02:04:22.251Z,78.32
2017-11-11T02:06:50.613Z,78.28
2017-11-11T02:09:18.687Z,78.19
2017-11-11T02:11:46.675Z,77.94
2017-11-11T02:14:14.347Z,77.25
2017-11-11T02:16:44.957Z,77.40
2017-11-11T02:19:16.193Z,77.63
2017-11-11T02:21:45.632Z,77.33
2017-11-11T02:24:14.883Z,77.43
2017-11-11T02:26:42.913Z,77.36
2017-11-11T02:29:12.622Z,76.68
2017-11-11T02:31:44.242Z,76.52
2017-11-11T02:34:16.136Z,76.32
2017-11-11T02:36:45.636Z,77.21
2017-11-11T02:39:15.076Z,78.67
2017-11-11T02:41:47.227Z,78.73
2017-11-11T02:44:24.775Z,78.97
2017-11-11T02:46:55.470Z,79.64
2017-11-11T02:49:23.880Z,79.38
2017-11-11T02:51:52.647Z,79.58
2017-11-11T02:54:21.816Z,78.83
2017-11-11T02:56:51.733Z,77.57
2017-11-11T02:59:19.767Z,76.87
2017-11-11T03:01:52.180Z,76.82
2017-11-11T03:04:21.304Z,76.43
2017-11-11T03:06:52.279Z,76.30
2017-11-11T03:09:21.161Z,78.20
2017-11-11T03:11:50.395Z,77.64
2017-11-11T03:14:18.315Z,78.37
2017-11-11T03:16:46.245Z,78.94
2017-11-11T03:19:14.312Z,78.13
2017-11-11T03:21:42.086Z,78.09
2017-11-11T03:24:11.964Z,78.51
2017-11-11T03:26:43.464Z,77.56
2017-11-11T03:29:13.879Z,77.61
2017-11-11T03:31:41.931Z,76.95
2017-11-11T03:34:10.501Z,76.32
2017-11-11T03:36:39.328Z,76.88
2017-11-11T03:39:07.265Z,76.28
2017-11-11T03:41:35.431Z,75.77
2017-11-11T03:44:07.079Z,75.77
2017-11-11T03:46:35.381Z,76.04
2017-11-11T03:49:04.351Z,75.73
2017-11-11T03:51:35.987Z,76.71
2017-11-11T03:54:04.261Z,76.29
2017-11-11T03:56:34.916Z,76.00
2017-11-11T03:59:03.299Z,75.58
2017-11-11T04:01:32.393Z,75.39
2017-11-11T04:04:02.174Z,75.82
2017-11-11T04:06:30.468Z,75.66
2017-11-11T04:09:01.591Z,75.85
2017-11-11T04:11:32.810Z,75.98
2017-11-11T04:14:00.640Z,76.02
2017-11-11T04:16:29.751Z,76.34
2017-11-11T04:18:58.126Z,76.36
2017-11-11T04:21:26.653Z,75.92
2017-11-11T04:23:55.171Z,75.84
2017-11-11T04:26:23.726Z,76.73
2017-11-11T04:28:52.782Z,76.03
2017-11-11T04:31:21.293Z,76.96
